Nazareth, Texas
Current Conditions -  °F | °C
As of 5:15 AM on Tuesday 21 Oct 2014 (Local Time) from KHRX Reporting Station
Broken Clouds Broken Clouds  
Wind Chill: 50°   Ceiling: 5500
Heat Index: 50°   Visibility: 7mi
Dew Point: 49°   Wind: 3mph
Humidity: 96%   Direction: 220°SW
Pressure: 30.13"   Gusts: NA
Location:  34.54°N, 102.1°W
Report Text: KHRX 211015Z AUTO 22003KT 7SM BKN055 10/09 A3013 RMK AO2 T01000094
Loading
Personal Weather Stations






























Interactive Weather Map
Tropical Storm Tracking
New forecast layout! Learn more

10-Day Weather Forecast

Advertisements
Track Severe Weather on mobile